Time;durP1;ratioP1;P1;durP2;ratioP2;P2;SDS_P1;SDS_P2;PMS_P1;PMS_P2;Temp;Humidity;BMP_temperature;BMP_pressure;BME280_temperature;BME280_humidity;BME280_pressure;Samples;Min_cycle;Max_cycle;Signal;HPM_P1;HPM_P2
2022/01/19 00:01:02;;;;;;;66.63;23.67;;;;;;;;;;5132031;27;20041;-62
2022/01/19 00:03:28;;;;;;;56.80;23.80;;;;;;;;;;5129043;27;20042;-62
2022/01/19 00:05:55;;;;;;;67.47;23.63;;;;;;;;;;5129540;27;20397;-62
2022/01/19 00:08:22;;;;;;;82.85;25.48;;;;;;;;;;5118592;27;20687;-62
2022/01/19 00:10:48;;;;;;;66.53;23.48;;;;;;;;;;5131735;27;20038;-60
2022/01/19 00:13:14;;;;;;;65.65;23.10;;;;;;;;;;5132649;27;20050;-61
2022/01/19 00:15:41;;;;;;;63.45;23.00;;;;;;;;;;5127571;27;20088;-61
2022/01/19 00:18:07;;;;;;;68.38;22.75;;;;;;;;;;5121928;27;20046;-61
2022/01/19 00:20:34;;;;;;;60.40;23.90;;;;;;;;;;5130228;27;20043;-62
2022/01/19 00:23:01;;;;;;;69.38;22.25;;;;;;;;;;5127254;27;20031;-62
2022/01/19 00:25:27;;;;;;;70.07;22.13;;;;;;;;;;5128781;27;20035;-62
2022/01/19 00:27:53;;;;;;;70.95;22.00;;;;;;;;;;5129788;27;20031;-62
2022/01/19 00:30:19;;;;;;;71.00;22.50;;;;;;;;;;5132639;27;20409;-62
2022/01/19 00:32:45;;;;;;;69.30;22.45;;;;;;;;;;5131890;27;20114;-63
2022/01/19 00:35:12;;;;;;;69.25;22.70;;;;;;;;;;5129959;27;20054;-63
2022/01/19 00:37:39;;;;;;;68.38;22.02;;;;;;;;;;5130265;27;20493;-62
2022/01/19 00:40:05;;;;;;;66.05;22.50;;;;;;;;;;5130590;27;20496;-63
2022/01/19 00:42:31;;;;;;;61.30;21.40;;;;;;;;;;5130970;27;20031;-61
2022/01/19 00:44:58;;;;;;;73.20;21.00;;;;;;;;;;5129827;27;20042;-63
2022/01/19 00:47:25;;;;;;;65.30;20.92;;;;;;;;;;5130636;27;20067;-61
2022/01/19 00:49:51;;;;;;;61.88;19.35;;;;;;;;;;5130423;27;20066;-62
2022/01/19 00:52:17;;;;;;;59.67;19.95;;;;;;;;;;5130764;27;20560;-63
2022/01/19 00:54:43;;;;;;;52.78;20.15;;;;;;;;;;5130475;27;20051;-63
2022/01/19 00:57:10;;;;;;;49.38;18.63;;;;;;;;;;5131206;27;20367;-62
2022/01/19 00:59:36;;;;;;;52.95;19.10;;;;;;;;;;5129107;27;20042;-62
2022/01/19 01:02:02;;;;;;;58.30;20.92;;;;;;;;;;5130105;27;20074;-61
2022/01/19 01:04:29;;;;;;;61.33;21.00;;;;;;;;;;5129378;27;20041;-63
2022/01/19 01:06:55;;;;;;;51.30;18.67;;;;;;;;;;5130670;27;20608;-61
2022/01/19 01:09:21;;;;;;;57.85;19.58;;;;;;;;;;5115323;27;20126;-64
2022/01/19 01:20:05;;;;;;;58.45;18.35;;;;;;;;;;5083533;28;20048;-62
2022/01/19 01:22:31;;;;;;;51.50;19.35;;;;;;;;;;5102292;28;20572;-63
2022/01/19 01:24:57;;;;;;;50.58;17.98;;;;;;;;;;5084607;28;20608;-62
2022/01/19 01:27:23;;;;;;;53.97;19.35;;;;;;;;;;5085011;28;20127;-62
2022/01/19 01:29:49;;;;;;;54.55;18.17;;;;;;;;;;5082512;28;20040;-61
2022/01/19 01:32:16;;;;;;;65.70;21.50;;;;;;;;;;5079587;28;20047;-62
2022/01/19 01:34:42;;;;;;;65.53;21.55;;;;;;;;;;5082247;28;20106;-62
2022/01/19 01:37:08;;;;;;;64.88;21.60;;;;;;;;;;5068961;28;20066;-62
2022/01/19 01:39:34;;;;;;;64.35;21.52;;;;;;;;;;5081703;28;20053;-63
2022/01/19 01:42:00;;;;;;;64.32;20.75;;;;;;;;;;5070522;28;20040;-64
2022/01/19 01:44:26;;;;;;;66.93;21.50;;;;;;;;;;5078025;28;20033;-62
2022/01/19 01:46:54;;;;;;;55.90;21.17;;;;;;;;;;5085429;28;20043;-62
2022/01/19 01:54:50;;;;;;;49.17;18.48;;;;;;;;;;5127059;28;20070;-63
2022/01/19 01:57:16;;;;;;;42.92;17.52;;;;;;;;;;5130710;27;20031;-63
2022/01/19 01:59:42;;;;;;;64.32;20.65;;;;;;;;;;5132474;27;20078;-61
2022/01/19 02:02:08;;;;;;;57.38;20.13;;;;;;;;;;5133632;27;20187;-61
2022/01/19 02:04:40;;;;;;;60.22;18.65;;;;;;;;;;5133342;27;20031;-62
2022/01/19 02:09:44;;;;;;;58.92;18.95;;;;;;;;;;5132148;27;20046;-62
2022/01/19 02:23:27;;;;;;;51.00;20.13;;;;;;;;;;5130827;27;20098;-61
2022/01/19 02:25:55;;;;;;;57.42;19.48;;;;;;;;;;5131237;27;20039;-62
2022/01/19 02:40:10;;;;;;;63.65;20.35;;;;;;;;;;5132445;27;20118;-62
2022/01/19 02:42:38;;;;;;;65.17;20.30;;;;;;;;;;5134314;27;20039;-62
2022/01/19 02:49:57;;;;;;;48.35;18.10;;;;;;;;;;5130950;27;20059;-62
2022/01/19 02:52:24;;;;;;;50.63;18.17;;;;;;;;;;5123225;27;20063;-60
2022/01/19 02:54:50;;;;;;;57.25;18.25;;;;;;;;;;5133995;27;20035;-61
2022/01/19 02:57:17;;;;;;;44.70;18.95;;;;;;;;;;5132158;27;20046;-63
2022/01/19 03:06:28;;;;;;;77.07;18.75;;;;;;;;;;5133158;27;20039;-62
2022/01/19 03:10:50;;;;;;;94.53;18.50;;;;;;;;;;5129948;27;20047;-62
2022/01/19 03:13:16;;;;;;;196.38;21.48;;;;;;;;;;5133013;27;20504;-62
2022/01/19 03:15:42;;;;;;;195.10;22.88;;;;;;;;;;5132743;27;20079;-61
2022/01/19 03:18:08;;;;;;;50.72;17.63;;;;;;;;;;5132685;27;20481;-62
2022/01/19 03:20:34;;;;;;;57.40;18.52;;;;;;;;;;5132407;27;20128;-61
2022/01/19 03:23:11;;;;;;;66.07;22.15;;;;;;;;;;5132192;27;20031;-62
2022/01/19 03:25:39;;;;;;;41.75;19.02;;;;;;;;;;5131386;27;20121;-62
2022/01/19 03:28:05;;;;;;;116.13;20.17;;;;;;;;;;5123257;27;20058;-62
2022/01/19 03:30:31;;;;;;;101.55;19.52;;;;;;;;;;5129551;27;20481;-62
2022/01/19 03:32:57;;;;;;;80.45;19.75;;;;;;;;;;5130128;27;20039;-62
2022/01/19 03:35:23;;;;;;;61.83;18.98;;;;;;;;;;5132621;27;20488;-62
2022/01/19 03:37:50;;;;;;;106.97;20.13;;;;;;;;;;5132623;27;20051;-64
2022/01/19 03:40:16;;;;;;;46.22;18.45;;;;;;;;;;5132012;27;20039;-62
2022/01/19 03:42:42;;;;;;;43.70;19.20;;;;;;;;;;5131733;27;20504;-62
2022/01/19 03:45:09;;;;;;;64.65;19.20;;;;;;;;;;5131885;27;20054;-62
2022/01/19 03:47:41;;;;;;;55.00;18.55;;;;;;;;;;5131215;27;20393;-63
2022/01/19 03:50:08;;;;;;;70.30;18.85;;;;;;;;;;5132134;27;20066;-61
2022/01/19 03:52:34;;;;;;;43.72;17.65;;;;;;;;;;5132845;27;20100;-61
2022/01/19 03:55:00;;;;;;;56.05;18.30;;;;;;;;;;5131642;27;20129;-61
2022/01/19 03:57:26;;;;;;;102.68;18.88;;;;;;;;;;5131205;27;20064;-61
2022/01/19 03:59:52;;;;;;;92.75;16.85;;;;;;;;;;5131932;27;20073;-62
2022/01/19 04:02:19;;;;;;;80.13;17.67;;;;;;;;;;5131528;27;20063;-61
2022/01/19 04:04:52;;;;;;;84.38;17.80;;;;;;;;;;5130872;27;20130;-61
2022/01/19 04:07:18;;;;;;;103.45;16.58;;;;;;;;;;5116412;27;20047;-63
2022/01/19 04:09:45;;;;;;;48.13;17.25;;;;;;;;;;5131212;27;20038;-62
2022/01/19 04:12:15;;;;;;;166.18;19.08;;;;;;;;;;5131512;27;20122;-61
2022/01/19 04:14:41;;;;;;;253.30;21.90;;;;;;;;;;5130100;27;20047;-61
2022/01/19 04:17:09;;;;;;;111.43;18.85;;;;;;;;;;5131600;27;20074;-64
2022/01/19 04:19:46;;;;;;;84.60;17.90;;;;;;;;;;5131283;27;20054;-62
2022/01/19 04:22:13;;;;;;;202.07;22.02;;;;;;;;;;5131076;27;20043;-61
2022/01/19 04:24:40;;;;;;;200.02;20.17;;;;;;;;;;5130904;27;21246;-61
2022/01/19 04:29:43;;;;;;;113.93;18.05;;;;;;;;;;5128896;27;20103;-61
2022/01/19 04:32:16;;;;;;;60.50;19.65;;;;;;;;;;5131311;27;20051;-61
2022/01/19 04:34:44;;;;;;;102.43;18.00;;;;;;;;;;5130427;27;20074;-64
2022/01/19 04:48:11;;;;;;;82.95;16.48;;;;;;;;;;5130128;27;20035;-62
2022/01/19 05:01:40;;;;;;;34.15;15.55;;;;;;;;;;5131315;27;20335;-61
2022/01/19 05:06:43;;;;;;;56.00;16.73;;;;;;;;;;5128655;27;20095;-61
2022/01/19 05:09:53;;;;;;;154.02;19.50;;;;;;;;;;5129169;27;20062;-61
2022/01/19 05:14:42;;;;;;;49.40;18.65;;;;;;;;;;5128687;27;20035;-61
2022/01/19 05:17:08;;;;;;;46.72;17.92;;;;;;;;;;5131045;27;20103;-61
2022/01/19 05:19:34;;;;;;;46.75;18.20;;;;;;;;;;5130655;27;20426;-60
2022/01/19 05:22:00;;;;;;;34.30;17.33;;;;;;;;;;5131006;27;20084;-61
2022/01/19 05:24:26;;;;;;;39.58;19.02;;;;;;;;;;5117348;27;20074;-61
2022/01/19 05:26:52;;;;;;;37.78;18.63;;;;;;;;;;5129356;27;20488;-61
2022/01/19 05:29:18;;;;;;;40.03;18.38;;;;;;;;;;5127600;27;20107;-63
2022/01/19 05:31:44;;;;;;;35.85;17.80;;;;;;;;;;5128790;27;20087;-62
2022/01/19 05:34:10;;;;;;;37.25;19.25;;;;;;;;;;5129517;27;20047;-62
2022/01/19 05:36:36;;;;;;;43.78;20.13;;;;;;;;;;5126755;27;20041;-62
2022/01/19 05:39:06;;;;;;;35.15;17.88;;;;;;;;;;5129099;27;20400;-62
2022/01/19 05:41:32;;;;;;;38.20;18.35;;;;;;;;;;5128827;27;20039;-62
2022/01/19 05:43:58;;;;;;;41.40;18.70;;;;;;;;;;5106817;28;20050;-61
2022/01/19 05:46:25;;;;;;;34.97;18.70;;;;;;;;;;5129903;28;20056;-62
2022/01/19 05:48:51;;;;;;;38.78;18.73;;;;;;;;;;5130941;28;20130;-61
2022/01/19 05:51:17;;;;;;;37.17;18.27;;;;;;;;;;5130075;28;20057;-62
2022/01/19 05:53:43;;;;;;;48.70;19.45;;;;;;;;;;5128992;28;20039;-62
2022/01/19 05:56:09;;;;;;;37.13;18.65;;;;;;;;;;5130258;28;20481;-62
2022/01/19 05:58:35;;;;;;;39.03;18.52;;;;;;;;;;5129320;28;20386;-60
2022/01/19 06:01:01;;;;;;;36.53;18.80;;;;;;;;;;5127602;28;20031;-61
2022/01/19 06:03:27;;;;;;;41.53;19.85;;;;;;;;;;5130033;28;20477;-63
2022/01/19 06:05:53;;;;;;;39.95;19.85;;;;;;;;;;5129835;28;20050;-62
2022/01/19 06:10:46;;;;;;;41.30;19.48;;;;;;;;;;5129553;28;20511;-61
2022/01/19 06:13:13;;;;;;;36.55;19.00;;;;;;;;;;5129693;28;20096;-62
2022/01/19 06:15:39;;;;;;;39.15;19.75;;;;;;;;;;5128581;28;20082;-62
2022/01/19 06:18:05;;;;;;;36.40;18.40;;;;;;;;;;5127878;28;20130;-62
2022/01/19 06:20:31;;;;;;;39.67;19.35;;;;;;;;;;5122103;28;20046;-62
2022/01/19 06:22:57;;;;;;;39.20;18.65;;;;;;;;;;5123681;28;20031;-62
2022/01/19 06:25:23;;;;;;;35.03;17.85;;;;;;;;;;5123568;28;20366;-61
2022/01/19 06:27:49;;;;;;;39.03;19.17;;;;;;;;;;5128516;28;20042;-61
2022/01/19 06:30:15;;;;;;;36.00;17.83;;;;;;;;;;5128284;28;20501;-63
2022/01/19 06:32:41;;;;;;;37.28;18.60;;;;;;;;;;5125704;28;20043;-61
2022/01/19 06:35:08;;;;;;;40.63;19.67;;;;;;;;;;5128466;28;20035;-61
2022/01/19 06:37:34;;;;;;;38.90;18.95;;;;;;;;;;5130650;28;20397;-61
2022/01/19 06:40:00;;;;;;;37.03;18.98;;;;;;;;;;5127568;28;20224;-62
2022/01/19 06:42:26;;;;;;;34.45;18.15;;;;;;;;;;5127592;28;20122;-63
2022/01/19 06:44:52;;;;;;;40.78;19.60;;;;;;;;;;5129706;27;20039;-63
2022/01/19 06:47:18;;;;;;;38.13;18.55;;;;;;;;;;5134295;27;20088;-63
2022/01/19 06:49:44;;;;;;;34.97;18.35;;;;;;;;;;5131626;27;20035;-61
2022/01/19 06:52:10;;;;;;;40.50;20.02;;;;;;;;;;5131909;27;20051;-62
2022/01/19 06:54:36;;;;;;;37.35;19.25;;;;;;;;;;5128631;27;20055;-61
2022/01/19 06:57:02;;;;;;;35.67;17.65;;;;;;;;;;5133604;27;20039;-60
2022/01/19 06:59:28;;;;;;;37.78;18.65;;;;;;;;;;5131542;27;20167;-62
2022/01/19 07:01:54;;;;;;;36.67;19.33;;;;;;;;;;5134433;27;20059;-61
2022/01/19 07:04:20;;;;;;;40.42;19.55;;;;;;;;;;5132185;27;20066;-60
2022/01/19 07:06:46;;;;;;;38.42;19.00;;;;;;;;;;5134272;27;20114;-61
2022/01/19 07:09:12;;;;;;;39.75;19.13;;;;;;;;;;5132457;27;20402;-61
2022/01/19 07:11:38;;;;;;;35.45;19.23;;;;;;;;;;5130067;27;20038;-60
2022/01/19 07:14:05;;;;;;;34.90;18.90;;;;;;;;;;5124953;27;20081;-60
2022/01/19 07:16:31;;;;;;;34.67;18.15;;;;;;;;;;5131509;27;20126;-61
2022/01/19 07:18:57;;;;;;;39.55;18.55;;;;;;;;;;5131316;27;20042;-61
2022/01/19 07:21:23;;;;;;;38.45;18.85;;;;;;;;;;5131330;27;20045;-59
2022/01/19 07:23:49;;;;;;;42.83;19.77;;;;;;;;;;5128399;27;20035;-61
2022/01/19 07:26:16;;;;;;;37.33;19.02;;;;;;;;;;5132362;27;20049;-61
2022/01/19 07:28:42;;;;;;;36.67;18.92;;;;;;;;;;5129235;27;20036;-60
2022/01/19 07:31:08;;;;;;;40.05;18.70;;;;;;;;;;5129071;27;20500;-61
2022/01/19 07:33:34;;;;;;;38.20;18.48;;;;;;;;;;5132013;27;20042;-61
2022/01/19 07:36:00;;;;;;;36.22;18.00;;;;;;;;;;5127468;27;20039;-60
2022/01/19 07:38:26;;;;;;;39.10;19.05;;;;;;;;;;5132795;27;20035;-61
2022/01/19 07:40:52;;;;;;;36.25;18.15;;;;;;;;;;5131946;27;20043;-61
2022/01/19 07:43:19;;;;;;;33.92;17.08;;;;;;;;;;5132665;27;20039;-60
2022/01/19 07:45:45;;;;;;;39.17;17.75;;;;;;;;;;5126143;27;20890;-62
2022/01/19 07:48:11;;;;;;;36.53;17.00;;;;;;;;;;5126835;27;20046;-61
2022/01/19 07:50:38;;;;;;;31.95;16.85;;;;;;;;;;5125585;27;20066;-62
2022/01/19 07:53:04;;;;;;;37.80;19.20;;;;;;;;;;5126259;27;20043;-60
2022/01/19 07:55:30;;;;;;;36.78;18.05;;;;;;;;;;5126333;27;20068;-61
2022/01/19 07:57:56;;;;;;;35.75;18.23;;;;;;;;;;5132217;27;20063;-60
2022/01/19 08:00:22;;;;;;;37.28;17.35;;;;;;;;;;5131671;27;20043;-61
2022/01/19 08:02:51;;;;;;;32.47;16.90;;;;;;;;;;5133143;27;20031;-60
2022/01/19 08:05:18;;;;;;;36.78;18.27;;;;;;;;;;5133419;27;20192;-61
2022/01/19 08:07:44;;;;;;;36.45;17.35;;;;;;;;;;5113432;27;20588;-60
2022/01/19 08:10:10;;;;;;;34.90;17.70;;;;;;;;;;5132718;27;20500;-60
2022/01/19 08:12:37;;;;;;;34.60;17.58;;;;;;;;;;5131846;27;20039;-61
2022/01/19 08:15:03;;;;;;;34.15;17.63;;;;;;;;;;5132909;27;20111;-61
2022/01/19 08:17:29;;;;;;;39.35;18.13;;;;;;;;;;5131922;27;20035;-61
2022/01/19 08:19:56;;;;;;;36.50;17.13;;;;;;;;;;5114253;27;20048;-60
2022/01/19 08:22:22;;;;;;;40.17;18.23;;;;;;;;;;5130679;27;20043;-60
2022/01/19 08:24:48;;;;;;;38.97;18.60;;;;;;;;;;5132403;27;20047;-60
2022/01/19 08:27:14;;;;;;;39.05;19.17;;;;;;;;;;5131998;27;20039;-59
2022/01/19 08:29:40;;;;;;;34.75;18.40;;;;;;;;;;5132561;27;20439;-60
2022/01/19 08:32:07;;;;;;;33.65;18.20;;;;;;;;;;5130349;27;20065;-60
2022/01/19 08:34:33;;;;;;;34.55;18.13;;;;;;;;;;5128249;27;20039;-62
2022/01/19 08:37:00;;;;;;;41.38;18.33;;;;;;;;;;5129742;27;20481;-61
2022/01/19 08:39:26;;;;;;;36.92;18.83;;;;;;;;;;5132062;27;20034;-61
2022/01/19 08:41:52;;;;;;;34.40;18.08;;;;;;;;;;5123424;27;20050;-61
2022/01/19 08:44:18;;;;;;;35.63;18.50;;;;;;;;;;5132588;27;20057;-60
2022/01/19 08:46:44;;;;;;;35.70;18.58;;;;;;;;;;5129411;27;20155;-59
2022/01/19 08:49:11;;;;;;;36.50;18.30;;;;;;;;;;5125064;27;20042;-61
2022/01/19 08:51:37;;;;;;;35.35;18.42;;;;;;;;;;5129552;27;20110;-60
2022/01/19 08:54:04;;;;;;;39.55;18.63;;;;;;;;;;5131795;27;20035;-61
2022/01/19 08:56:30;;;;;;;38.58;18.83;;;;;;;;;;5112971;27;20042;-61
2022/01/19 08:58:56;;;;;;;39.60;19.40;;;;;;;;;;5132124;27;20046;-59
2022/01/19 09:01:23;;;;;;;35.55;18.95;;;;;;;;;;5131395;27;20042;-62
2022/01/19 09:03:49;;;;;;;36.97;19.15;;;;;;;;;;5130480;27;20065;-61
2022/01/19 09:06:15;;;;;;;32.92;17.50;;;;;;;;;;5132112;27;20080;-60
2022/01/19 09:08:41;;;;;;;34.03;18.38;;;;;;;;;;5129920;27;20451;-60
2022/01/19 09:11:08;;;;;;;36.58;18.75;;;;;;;;;;5131982;27;20112;-60
2022/01/19 09:13:35;;;;;;;39.33;19.80;;;;;;;;;;5130247;27;20043;-60
2022/01/19 09:16:01;;;;;;;37.90;20.67;;;;;;;;;;5130873;27;20063;-60
2022/01/19 09:18:27;;;;;;;35.15;18.77;;;;;;;;;;5131774;27;20107;-60
2022/01/19 09:20:53;;;;;;;38.60;19.95;;;;;;;;;;5131136;27;20524;-59
2022/01/19 09:23:19;;;;;;;41.58;20.50;;;;;;;;;;5130549;27;20042;-58
2022/01/19 09:25:45;;;;;;;35.30;19.95;;;;;;;;;;5131809;27;20031;-59
2022/01/19 09:28:11;;;;;;;38.90;19.60;;;;;;;;;;5131023;27;20054;-60
2022/01/19 09:30:40;;;;;;;35.47;19.35;;;;;;;;;;5124464;27;20062;-59
2022/01/19 09:33:10;;;;;;;36.33;20.02;;;;;;;;;;5129432;27;20118;-59
2022/01/19 09:38:24;;;;;;;37.63;21.23;;;;;;;;;;5131339;27;20082;-60
2022/01/19 09:40:50;;;;;;;43.08;22.25;;;;;;;;;;5130820;27;20035;-60
2022/01/19 09:43:18;;;;;;;43.47;22.33;;;;;;;;;;5131585;27;20059;-61
2022/01/19 09:45:44;;;;;;;44.05;21.80;;;;;;;;;;5127782;27;20041;-60
2022/01/19 09:48:10;;;;;;;37.47;21.95;;;;;;;;;;5121674;28;20092;-61
2022/01/19 09:50:37;;;;;;;38.97;20.10;;;;;;;;;;5131283;28;20059;-60
2022/01/19 09:53:04;;;;;;;46.42;23.52;;;;;;;;;;5130417;28;20505;-60
2022/01/19 09:55:30;;;;;;;42.80;22.35;;;;;;;;;;5131152;28;20046;-61
2022/01/19 09:57:56;;;;;;;44.42;22.40;;;;;;;;;;5128947;28;20042;-59
2022/01/19 10:00:22;;;;;;;44.53;22.75;;;;;;;;;;5130827;28;20087;-60
2022/01/19 10:03:12;;;;;;;45.08;23.05;;;;;;;;;;5123594;27;20035;-60
2022/01/19 10:05:57;;;;;;;48.83;23.90;;;;;;;;;;5124947;28;20043;-60
2022/01/19 10:08:27;;;;;;;41.65;23.02;;;;;;;;;;5129590;27;20495;-61
2022/01/19 10:11:15;;;;;;;46.22;23.23;;;;;;;;;;5128528;28;20039;-61
2022/01/19 10:19:19;;;;;;;42.90;22.27;;;;;;;;;;5133408;27;20382;-60
2022/01/19 10:21:59;;;;;;;48.58;22.88;;;;;;;;;;5132050;27;20114;-59
2022/01/19 10:24:34;;;;;;;49.50;25.48;;;;;;;;;;5134187;27;20084;-58
2022/01/19 10:27:27;;;;;;;51.00;26.15;;;3.80;99.90;;;;;;5129090;27;20453;-61
2022/01/19 10:29:57;;;;;;;50.20;24.73;;;;;;;;;;5121093;27;20119;-60
2022/01/19 10:32:24;;;;;;;52.15;26.65;;;;;;;;;;5125671;27;20406;-59
2022/01/19 10:34:51;;;;;;;51.10;26.38;;;;;;;;;;5125731;27;20061;-60
2022/01/19 10:37:25;;;;;;;48.25;26.08;;;;;;;;;;5131017;27;20046;-59
2022/01/19 10:39:51;;;;;;;52.63;26.65;;;;;;;;;;5134359;27;20066;-60
2022/01/19 10:42:19;;;;;;;54.65;26.50;;;;;;;;;;5133838;27;20043;-60
2022/01/19 10:44:46;;;;;;;54.97;28.73;;;;;;;;;;5134615;27;20046;-59
2022/01/19 10:47:12;;;;;;;60.05;29.20;;;;;;;;;;5134132;27;20096;-60
2022/01/19 10:49:49;;;;;;;55.63;27.58;;;;;;;;;;5134206;27;20046;-59
2022/01/19 10:52:30;;;;;;;63.95;31.17;;;;;;;;;;5134654;27;20113;-60
2022/01/19 10:54:59;;;;;;;59.40;29.30;;;;;;;;;;5133843;27;20043;-59
2022/01/19 10:57:27;;;;;;;59.28;29.17;;;;;;;;;;5133644;27;20042;-60
2022/01/19 10:59:53;;;;;;;72.35;31.73;;;;;;;;;;5132540;27;20064;-59
2022/01/19 11:02:20;;;;;;;65.70;31.42;;;;;;;;;;5133665;27;20041;-59
2022/01/19 11:04:46;;;;;;;71.90;31.15;;;;;;;;;;5134262;27;20084;-60
2022/01/19 11:07:15;;;;;;;68.97;31.70;;;;;;;;;;5133122;27;20043;-59
2022/01/19 11:09:46;;;;;;;72.32;33.38;;;;;;;;;;5132032;27;20439;-60
2022/01/19 11:12:17;;;;;;;68.20;32.55;;;;;;;;;;5130718;27;20497;-60
2022/01/19 11:14:45;;;;;;;75.05;34.13;;;;;;;;;;5133025;27;20041;-60
2022/01/19 11:17:11;;;;;;;79.60;34.50;;;;;;;;;;5131130;27;20043;-61
2022/01/19 11:19:41;;;;;;;73.05;33.22;;;;;;;;;;5132327;27;20374;-60
2022/01/19 11:22:14;;;;;;;76.75;34.58;;;;;;;;;;5133843;27;20043;-61
2022/01/19 11:24:43;;;;;;;77.82;34.15;;;;;;;;;;5132794;27;20122;-60
2022/01/19 11:27:09;;;;;;;71.82;34.22;;;;;;;;;;5132601;27;20130;-59
2022/01/19 11:29:38;;;;;;;74.25;36.03;;;;;;;;;;5130240;27;20087;-60
2022/01/19 11:32:13;;;;;;;75.80;33.80;;;;;;;;;;5130936;27;20043;-60
2022/01/19 11:34:45;;;;;;;71.70;32.60;;;;;;;;;;5132719;27;20035;-61
2022/01/19 11:37:11;;;;;;;77.95;33.53;;;;;;;;;;5123621;27;20127;-60
2022/01/19 11:39:57;;;;;;;76.53;33.85;;;;;;;;;;5124113;27;20043;-60
2022/01/19 11:42:24;;;;;;;80.20;35.92;;;;;;;;;;5128950;27;20035;-59
2022/01/19 11:44:51;;;;;;;78.60;36.80;;;;;;;;;;5122552;27;20412;-60
2022/01/19 11:47:21;;;;;;;78.78;34.58;;;;;;;;;;5131933;27;20054;-60
2022/01/19 11:49:50;;;;;;;80.47;36.33;;;;;;;;;;5132430;27;20357;-60
2022/01/19 11:52:19;;;;;;;73.18;34.63;;;;;;;;;;5133053;27;20050;-59
2022/01/19 11:54:45;;;;;;;73.25;35.22;;;;;;;;;;5131366;27;20095;-60
2022/01/19 11:57:26;;;;;;;71.75;35.40;;;;;;;;;;5116384;27;20166;-60
2022/01/19 11:59:55;;;;;;;73.82;34.85;;;;;;;;;;5132486;27;20509;-60
2022/01/19 12:02:23;;;;;;;74.95;37.05;;;;;;;;;;5130565;27;20532;-60
2022/01/19 12:04:52;;;;;;;72.75;35.03;;;;;;;;;;5132615;27;20031;-61
2022/01/19 12:07:38;;;;;;;71.40;33.78;;;;;;;;;;5129912;27;20043;-59
2022/01/19 12:10:05;;;;;;;71.55;35.67;;;;;;;;;;5132774;27;20378;-61
2022/01/19 12:12:37;;;;;;;76.00;36.17;;;;;;;;;;5132012;27;20114;-59
2022/01/19 12:15:07;;;;;;;74.70;35.70;;;;;;;;;;5132497;27;20042;-60
2022/01/19 12:17:56;;;;;;;68.47;33.30;;;;;;;;;;5131900;27;20039;-60
2022/01/19 12:20:51;;;;;;;78.18;36.00;;;4.40;99.90;;;;;;5129325;27;20107;-61
2022/01/19 12:23:34;;;;;;;69.78;35.35;;;;;;;;;;5132094;27;20031;-59
2022/01/19 12:26:00;;;;;;;72.72;36.25;;;;;;;;;;5131493;27;20092;-59
2022/01/19 12:28:38;;;;;;;73.43;34.28;;;;;;;;;;5131924;27;20103;-60
2022/01/19 12:31:23;;;;;;;69.43;33.72;;;;;;;;;;5131687;27;20050;-60
2022/01/19 12:34:01;;;;;;;71.53;33.97;;;;;;;;;;5132215;27;20035;-59
2022/01/19 12:36:42;;;;;;;69.45;33.35;;;;;;;;;;5131449;27;20388;-61
2022/01/19 12:39:41;;;;;;;71.80;34.47;;;;;;;;;;5130215;27;20666;-60
2022/01/19 12:42:13;;;;;;;70.82;33.85;;;;;;;;;;5104606;27;20635;-60
2022/01/19 12:44:41;;;;;;;;;;;4.50;99.90;;;;;;5108177;28;20085;-60
2022/01/19 12:49:53;;;;;;;70.97;33.88;;;;;;;;;;5106166;28;20092;-61
2022/01/19 12:52:20;;;;;;;73.45;34.28;;;;;;;;;;5108060;27;20074;-60
2022/01/19 12:54:46;;;;;;;69.30;34.78;;;;;;;;;;5107577;28;20780;-61
2022/01/19 12:57:15;;;;;;;71.47;35.10;;;;;;;;;;5092439;28;20115;-60
2022/01/19 12:59:42;;;;;;;70.53;33.55;;;;;;;;;;5074410;28;20147;-61
2022/01/19 13:02:09;;;;;;;71.32;32.58;;;;;;;;;;5109327;28;20042;-61
2022/01/19 13:04:36;;;;;;;71.15;34.20;;;;;;;;;;5109240;28;20157;-60
2022/01/19 13:07:19;;;;;;;70.10;33.78;;;;;;;;;;5109456;28;20032;-59
2022/01/19 13:10:18;;;;;;;65.38;32.88;;;;;;;;;;5092089;28;20069;-60
2022/01/19 13:13:29;;;;;;;72.40;32.75;;;;;;;;;;5109158;28;20062;-59
2022/01/19 13:15:43;;;;;;;66.97;31.75;;;;;;;;;;5100141;28;20054;-60
2022/01/19 13:18:10;;;;;;;70.88;32.90;;;;;;;;;;5125046;27;20388;-60
2022/01/19 13:20:36;;;;;;;67.68;31.58;;;;;;;;;;5131665;27;20039;-61
2022/01/19 13:23:05;;;;;;;69.07;34.05;;;;;;;;;;5131912;27;20046;-60
2022/01/19 13:25:33;;;;;;;68.60;31.65;;;;;;;;;;5132029;27;20382;-60
2022/01/19 13:28:01;;;;;;;57.65;28.83;;;;;;;;;;5132012;27;20446;-61
2022/01/19 13:30:28;;;;;;;62.55;32.40;;;;;;;;;;5131787;27;20042;-61
2022/01/19 13:32:54;;;;;;;63.13;31.55;;;;;;;;;;5131615;27;20039;-61
2022/01/19 13:35:21;;;;;;;64.03;32.35;;;;;;;;;;5131569;27;20043;-59
2022/01/19 13:37:51;;;;;;;65.32;31.48;;;;;;;;;;5131531;27;20034;-61
2022/01/19 13:40:29;;;;;;;56.33;29.00;;;;;;;;;;5131719;27;20046;-62
2022/01/19 13:42:59;;;;;;;64.07;31.73;;;;;;;;;;5131677;27;20039;-60
2022/01/19 13:48:20;;;;;;;54.05;27.63;;;;;;;;;;5125633;27;20041;-60
2022/01/19 13:51:03;;;;;;;55.80;29.58;;;;;;;;;;5127967;28;20482;-61
2022/01/19 13:53:40;;;;;;;54.38;29.48;;;;;;;;;;5130813;27;20043;-61
2022/01/19 13:56:10;;;;;;;60.80;29.88;;;;;;;;;;5131019;27;20046;-60
2022/01/19 13:58:41;;;;;;;60.10;30.35;;;;;;;;;;5131427;28;20055;-59
2022/01/19 14:01:12;;;;;;;60.33;28.92;;;;;;;;;;5130972;28;20031;-59
2022/01/19 14:03:46;;;;;;;56.63;29.52;;;;;;;;;;5131269;27;20039;-61
2022/01/19 14:06:24;;;;;;;56.65;28.38;;;;;;;;;;5130843;28;20036;-60
2022/01/19 14:08:51;;;;;;;54.53;28.33;;;;;;;;;;5130918;27;20087;-59
2022/01/19 14:11:24;;;;;;;58.72;27.98;;;;;;;;;;5131324;28;20180;-60
2022/01/19 14:14:00;;;;;;;50.40;28.40;;;;;;;;;;5131383;28;20046;-61
2022/01/19 14:16:30;;;;;;;58.22;29.00;;;;;;;;;;5131266;27;20043;-60
2022/01/19 14:19:05;;;;;;;60.42;29.17;;;;;;;;;;5130727;27;20054;-60
2022/01/19 14:21:31;;;;;;;55.97;27.63;;;;;;;;;;5112887;28;20134;-60
2022/01/19 14:24:00;;;;;;;60.28;30.58;;;;;;;;;;5131265;28;20118;-61
2022/01/19 14:26:27;;;;;;;60.60;29.02;;;;;;;;;;5131386;28;20039;-59
2022/01/19 14:29:14;;;;;;;62.05;29.02;;;4.60;99.90;;;;;;5131331;28;20485;-61
2022/01/19 14:31:47;;;;;;;64.30;28.92;;;;;;;;;;5131139;28;20050;-61
2022/01/19 14:34:13;;;;;;;61.50;30.42;;;;;;;;;;5131311;28;20047;-60
2022/01/19 14:36:39;;;;;;;57.55;26.63;;;;;;;;;;5131258;28;20416;-60
2022/01/19 14:39:05;;;;;;;62.90;30.27;;;;;;;;;;5131100;28;20035;-59
2022/01/19 14:41:36;;;;;;;56.70;27.90;;;;;;;;;;5131056;28;20482;-61
2022/01/19 14:44:08;;;;;;;56.40;27.98;;;;;;;;;;5130992;27;20035;-62
2022/01/19 14:46:54;;;;;;;63.92;28.67;;;;;;;;;;5131244;27;20043;-61
2022/01/19 14:49:27;;;;;;;65.95;29.00;;;;;;;;;;5131162;27;20031;-60
2022/01/19 14:51:53;;;;;;;59.13;27.90;;;;;;;;;;5130879;27;20062;-60
2022/01/19 14:54:20;;;;;;;62.25;29.83;;;;;;;;;;5130879;28;20039;-60
2022/01/19 14:56:46;;;;;;;55.63;26.98;;;;;;;;;;5131259;27;20118;-60
2022/01/19 14:59:13;;;;;;;60.72;28.95;;;;;;;;;;5130708;28;20039;-60
2022/01/19 15:01:41;;;;;;;63.70;27.90;;;;;;;;;;5131073;28;20109;-61
2022/01/19 15:04:08;;;;;;;54.85;28.45;;;;;;;;;;5112717;28;20093;-60
2022/01/19 15:06:34;;;;;;;59.63;29.13;;;;;;;;;;5133828;27;20027;-60
2022/01/19 15:09:01;;;;;;;56.85;27.20;;;;;;;;;;5134573;27;20084;-62
2022/01/19 15:11:27;;;;;;;58.00;27.50;;;;;;;;;;5134391;27;20438;-59
2022/01/19 15:13:53;;;;;;;61.08;28.75;;;;;;;;;;5134385;27;20069;-61
2022/01/19 15:16:19;;;;;;;66.00;28.08;;;;;;;;;;5134353;27;20039;-59
2022/01/19 15:18:46;;;;;;;64.80;29.65;;;;;;;;;;5134418;27;20490;-61
2022/01/19 15:21:12;;;;;;;54.55;26.70;;;;;;;;;;5134127;27;20491;-60
2022/01/19 15:23:38;;;;;;;58.50;27.55;;;;;;;;;;5116242;27;20127;-60
2022/01/19 15:26:04;;;;;;;64.68;27.23;;;;;;;;;;5134729;27;20058;-61
2022/01/19 15:28:30;;;;;;;69.28;28.35;;;;;;;;;;5134162;27;20039;-59
2022/01/19 15:30:56;;;;;;;57.95;27.52;;;;;;;;;;5134144;27;20398;-61
2022/01/19 15:33:23;;;;;;;65.88;28.85;;;;;;;;;;5133747;27;20047;-60
2022/01/19 15:35:49;;;;;;;65.47;26.92;;;;;;;;;;5129746;27;20035;-60
2022/01/19 15:38:15;;;;;;;61.03;26.75;;;;;;;;;;5132151;27;20323;-60
2022/01/19 15:40:42;;;;;;;57.53;27.20;;;;;;;;;;5115425;27;20498;-60
2022/01/19 15:43:09;;;;;;;71.15;28.73;;;;;;;;;;5132599;27;20098;-59
2022/01/19 15:45:36;;;;;;;59.55;26.83;;;;;;;;;;5133549;27;20039;-61
2022/01/19 15:48:05;;;;;;;59.20;26.92;;;;;;;;;;5133285;27;20036;-61
2022/01/19 15:50:32;;;;;;;52.67;25.23;;;;;;;;;;5132940;27;20172;-60
2022/01/19 15:52:59;;;;;;;57.38;23.75;;;;;;;;;;5132889;27;20401;-62
2022/01/19 15:55:25;;;;;;;57.60;23.02;;;;;;;;;;5133386;27;20113;-60
2022/01/19 15:57:51;;;;;;;52.58;22.40;;;;;;;;;;5133427;27;20378;-61
2022/01/19 16:00:18;;;;;;;47.38;21.38;;;;;;;;;;5132995;27;20496;-61
2022/01/19 16:02:44;;;;;;;47.65;21.27;;;;;;;;;;5133232;27;20541;-60